Silver Creek, Nebraska
Current Conditions -  °F | °C
As of 9:55 AM on Friday 24 Oct 2014 (Local Time) from KOLU Reporting Station
Clear Clear  
Wind Chill: 59°   Ceiling: Unl
Heat Index: 59°   Visibility: 7mi
Dew Point: 54°   Wind: 8mph
Humidity: 82%   Direction: 240°WSW
Pressure: 29.95"   Gusts: NA
Location:  41.31°N, 97.66°W
Report Text: KOLU 241455Z AUTO 24007KT 7SM CLR 15/12 A2995 RMK AO1 52007
Loading
Personal Weather Stations






























Interactive Weather Map
Tropical Storm Tracking
New forecast layout! Learn more

10-Day Weather Forecast

Advertisements
Track Severe Weather on mobile